SXS432 LTBJ-LTAC
Flight info
| Callsign | SXS432 |
|---|---|
| Flight time | 0h 58m |
| Altitude | 39000 |
| Route | KULAR UT54 HALIL |
| Aircraft | B38M/M-SDE1FGHILORVWXY/HB1 |
Departure
| Time | 2026-05-07 16:10 |
|---|---|
| Airport | Adnan Menderes International Airport (LTBJ) |
Arrival
| Time | 2026-05-07 17:08 |
|---|---|
| Airport | Esenboğa International Airport (LTAC) |
| Time | Latitude | Longitude | Altitude | Speed | Heading |
|---|---|---|---|---|---|
| 2026-05-07 15:54 | 38.29153 | 27.15116 | 414 ft | 0 kts | 257° |
| 2026-05-07 16:03 | 38.29156 | 27.15132 | 414 ft | 2 kts | 253° |
| 2026-05-07 16:03 | 38.29162 | 27.15152 | 405 ft | 2 kts | 246° |
| 2026-05-07 16:03 | 38.29174 | 27.15174 | 408 ft | 2 kts | 205° |
| 2026-05-07 16:03 | 38.29184 | 27.15177 | 414 ft | 2 kts | 174° |
| 2026-05-07 16:04 | 38.29192 | 27.15176 | 409 ft | 0 kts | 167° |
| 2026-05-07 16:04 | 38.29192 | 27.15175 | 409 ft | 0 kts | 167° |
| 2026-05-07 16:05 | 38.29192 | 27.15176 | 409 ft | 1 kts | 167° |
| 2026-05-07 16:06 | 38.29182 | 27.15200 | 408 ft | 8 kts | 103° |
| 2026-05-07 16:06 | 38.29216 | 27.15258 | 413 ft | 11 kts | 10° |
| 2026-05-07 16:06 | 38.29320 | 27.15166 | 414 ft | 26 kts | 317° |
| 2026-05-07 16:06 | 38.29503 | 27.15082 | 414 ft | 30 kts | 347° |
| 2026-05-07 16:07 | 38.29708 | 27.15020 | 413 ft | 31 kts | 346° |
| 2026-05-07 16:07 | 38.29890 | 27.14970 | 411 ft | 15 kts | 6° |
| 2026-05-07 16:07 | 38.29964 | 27.15102 | 414 ft | 27 kts | 75° |
| 2026-05-07 16:07 | 38.30011 | 27.15375 | 414 ft | 34 kts | 60° |
| 2026-05-07 16:08 | 38.30229 | 27.15402 | 419 ft | 38 kts | 345° |
| 2026-05-07 16:08 | 38.30496 | 27.15317 | 419 ft | 29 kts | 346° |
| 2026-05-07 16:08 | 38.30604 | 27.15209 | 420 ft | 15 kts | 272° |
| 2026-05-07 16:08 | 38.30550 | 27.15106 | 418 ft | 15 kts | 202° |
| 2026-05-07 16:09 | 38.30470 | 27.15108 | 416 ft | 0 kts | 167° |
| 2026-05-07 16:09 | 38.30421 | 27.15122 | 420 ft | 30 kts | 167° |
| 2026-05-07 16:09 | 38.29992 | 27.15249 | 413 ft | 95 kts | 167° |
| 2026-05-07 16:09 | 38.29162 | 27.15501 | 418 ft | 149 kts | 168° |
| 2026-05-07 16:10 | 38.28037 | 27.15839 | 653 ft | 176 kts | 170° |
| 2026-05-07 16:10 | 38.26814 | 27.16219 | 1293 ft | 185 kts | 168° |
| 2026-05-07 16:10 | 38.25549 | 27.16617 | 1959 ft | 193 kts | 168° |
| 2026-05-07 16:10 | 38.24144 | 27.17068 | 2222 ft | 225 kts | 168° |
| 2026-05-07 16:11 | 38.22565 | 27.17579 | 2566 ft | 252 kts | 168° |
| 2026-05-07 16:11 | 38.20873 | 27.18114 | 3489 ft | 253 kts | 166° |
| 2026-05-07 16:11 | 38.19117 | 27.18713 | 4100 ft | 270 kts | 158° |
| 2026-05-07 16:11 | 38.17567 | 27.20064 | 4912 ft | 271 kts | 128° |
| 2026-05-07 16:12 | 38.16706 | 27.22155 | 5820 ft | 269 kts | 101° |
| 2026-05-07 16:12 | 38.16651 | 27.24510 | 6695 ft | 268 kts | 79° |
| 2026-05-07 16:12 | 38.17033 | 27.26833 | 7453 ft | 275 kts | 77° |
| 2026-05-07 16:12 | 38.17443 | 27.29235 | 8267 ft | 279 kts | 75° |
| 2026-05-07 16:13 | 38.17873 | 27.31667 | 9049 ft | 285 kts | 74° |
| 2026-05-07 16:13 | 38.18446 | 27.34082 | 9843 ft | 287 kts | 65° |
| 2026-05-07 16:13 | 38.19208 | 27.36471 | 10487 ft | 298 kts | 66° |
| 2026-05-07 16:13 | 38.19990 | 27.38959 | 10834 ft | 318 kts | 66° |
| 2026-05-07 16:14 | 38.20833 | 27.41643 | 11249 ft | 335 kts | 66° |
| 2026-05-07 16:14 | 38.21713 | 27.44447 | 11804 ft | 346 kts | 66° |
| 2026-05-07 16:14 | 38.22604 | 27.47286 | 12605 ft | 349 kts | 66° |
| 2026-05-07 16:14 | 38.23509 | 27.50175 | 13394 ft | 354 kts | 66° |
| 2026-05-07 16:15 | 38.24428 | 27.53108 | 14116 ft | 361 kts | 66° |
| 2026-05-07 16:15 | 38.25360 | 27.56094 | 14818 ft | 365 kts | 65° |
| 2026-05-07 16:15 | 38.26293 | 27.59077 | 15577 ft | 370 kts | 65° |
| 2026-05-07 16:15 | 38.27248 | 27.62138 | 16284 ft | 375 kts | 65° |
| 2026-05-07 16:16 | 38.28217 | 27.65247 | 17016 ft | 380 kts | 65° |
| 2026-05-07 16:16 | 38.29196 | 27.68390 | 17727 ft | 385 kts | 65° |
| 2026-05-07 16:16 | 38.30185 | 27.71568 | 18440 ft | 389 kts | 65° |
| 2026-05-07 16:16 | 38.31188 | 27.74801 | 19012 ft | 395 kts | 65° |
| 2026-05-07 16:17 | 38.32187 | 27.78022 | 19594 ft | 397 kts | 66° |
| 2026-05-07 16:17 | 38.33212 | 27.81329 | 20217 ft | 400 kts | 66° |
| 2026-05-07 16:17 | 38.34238 | 27.84644 | 20824 ft | 404 kts | 66° |
| 2026-05-07 16:17 | 38.35271 | 27.87985 | 21413 ft | 408 kts | 66° |
| 2026-05-07 16:18 | 38.36299 | 27.91312 | 21995 ft | 411 kts | 66° |
| 2026-05-07 16:18 | 38.37348 | 27.94714 | 22587 ft | 414 kts | 66° |
| 2026-05-07 16:18 | 38.38403 | 27.98139 | 23141 ft | 418 kts | 66° |
| 2026-05-07 16:18 | 38.39471 | 28.01609 | 23714 ft | 421 kts | 66° |
| 2026-05-07 16:19 | 38.40531 | 28.05058 | 24150 ft | 425 kts | 66° |
| 2026-05-07 16:19 | 38.41610 | 28.08572 | 24642 ft | 427 kts | 66° |
| 2026-05-07 16:19 | 38.42695 | 28.12113 | 25099 ft | 430 kts | 66° |
| 2026-05-07 16:19 | 38.43786 | 28.15679 | 25549 ft | 434 kts | 66° |
| 2026-05-07 16:20 | 38.44871 | 28.19227 | 25990 ft | 436 kts | 66° |
| 2026-05-07 16:20 | 38.45976 | 28.22846 | 26420 ft | 440 kts | 66° |
| 2026-05-07 16:20 | 38.47087 | 28.26490 | 26855 ft | 443 kts | 66° |
| 2026-05-07 16:20 | 38.48204 | 28.30158 | 27276 ft | 445 kts | 66° |
| 2026-05-07 16:21 | 38.49331 | 28.33862 | 27704 ft | 448 kts | 66° |
| 2026-05-07 16:21 | 38.50440 | 28.37515 | 28093 ft | 451 kts | 66° |
| 2026-05-07 16:21 | 38.51577 | 28.41263 | 28550 ft | 453 kts | 66° |
| 2026-05-07 16:21 | 38.52714 | 28.45016 | 28938 ft | 456 kts | 66° |
| 2026-05-07 16:22 | 38.53861 | 28.48810 | 29328 ft | 459 kts | 66° |
| 2026-05-07 16:22 | 38.55015 | 28.52630 | 29727 ft | 462 kts | 66° |
| 2026-05-07 16:22 | 38.56172 | 28.56466 | 30159 ft | 464 kts | 66° |
| 2026-05-07 16:22 | 38.57320 | 28.60276 | 30467 ft | 467 kts | 66° |
| 2026-05-07 16:23 | 38.58293 | 28.64247 | 30773 ft | 473 kts | 78° |
| 2026-05-07 16:23 | 38.58698 | 28.68397 | 31151 ft | 474 kts | 79° |
| 2026-05-07 16:23 | 38.59156 | 28.72573 | 31418 ft | 477 kts | 79° |
| 2026-05-07 16:23 | 38.59603 | 28.76795 | 31736 ft | 480 kts | 79° |
| 2026-05-07 16:24 | 38.60037 | 28.81023 | 32035 ft | 482 kts | 80° |
| 2026-05-07 16:24 | 38.60467 | 28.85257 | 32334 ft | 484 kts | 79° |
| 2026-05-07 16:24 | 38.60900 | 28.89544 | 32651 ft | 486 kts | 79° |
| 2026-05-07 16:24 | 38.61332 | 28.93833 | 33038 ft | 486 kts | 79° |
| 2026-05-07 16:25 | 38.61753 | 28.98025 | 33445 ft | 486 kts | 79° |
| 2026-05-07 16:25 | 38.62181 | 29.02316 | 33859 ft | 486 kts | 79° |
| 2026-05-07 16:25 | 38.62606 | 29.06596 | 34311 ft | 485 kts | 79° |
| 2026-05-07 16:25 | 38.63030 | 29.10870 | 34659 ft | 484 kts | 79° |
| 2026-05-07 16:26 | 38.63453 | 29.15145 | 35021 ft | 483 kts | 79° |
| 2026-05-07 16:26 | 38.63870 | 29.19383 | 35376 ft | 482 kts | 79° |
| 2026-05-07 16:26 | 38.64287 | 29.23626 | 35721 ft | 481 kts | 79° |
| 2026-05-07 16:26 | 38.64702 | 29.27871 | 36077 ft | 481 kts | 79° |
| 2026-05-07 16:27 | 38.65113 | 29.32084 | 36380 ft | 480 kts | 79° |
| 2026-05-07 16:27 | 38.65518 | 29.36265 | 36668 ft | 480 kts | 79° |
| 2026-05-07 16:27 | 38.65927 | 29.40498 | 36973 ft | 479 kts | 79° |
| 2026-05-07 16:27 | 38.66334 | 29.44722 | 37267 ft | 478 kts | 79° |
| 2026-05-07 16:28 | 38.66842 | 29.48896 | 37547 ft | 476 kts | 76° |
| 2026-05-07 16:28 | 38.67389 | 29.53074 | 37815 ft | 476 kts | 77° |
| 2026-05-07 16:28 | 38.67922 | 29.57263 | 38091 ft | 476 kts | 77° |
| 2026-05-07 16:28 | 38.68447 | 29.61430 | 38320 ft | 477 kts | 77° |
| 2026-05-07 16:29 | 38.68972 | 29.65618 | 38549 ft | 477 kts | 77° |
| 2026-05-07 16:29 | 38.69496 | 29.69801 | 38792 ft | 476 kts | 77° |
| 2026-05-07 16:29 | 38.70007 | 29.73905 | 38972 ft | 476 kts | 77° |
| 2026-05-07 16:29 | 38.70527 | 29.78085 | 39130 ft | 476 kts | 77° |
| 2026-05-07 16:30 | 38.71047 | 29.82283 | 39173 ft | 477 kts | 77° |
| 2026-05-07 16:30 | 38.72078 | 29.90636 | 39178 ft | 475 kts | 77° |
| 2026-05-07 16:31 | 38.73102 | 29.98936 | 39166 ft | 474 kts | 76° |
| 2026-05-07 16:31 | 38.74217 | 30.07254 | 39180 ft | 475 kts | 76° |
| 2026-05-07 16:32 | 38.75315 | 30.15536 | 39176 ft | 474 kts | 76° |
| 2026-05-07 16:32 | 38.76406 | 30.23831 | 39167 ft | 474 kts | 76° |
| 2026-05-07 16:33 | 38.77495 | 30.32153 | 39172 ft | 474 kts | 76° |
| 2026-05-07 16:33 | 38.78580 | 30.40489 | 39180 ft | 474 kts | 76° |
| 2026-05-07 16:34 | 38.79649 | 30.48754 | 39167 ft | 473 kts | 76° |
| 2026-05-07 16:34 | 38.81173 | 30.56808 | 39164 ft | 459 kts | 60° |
| 2026-05-07 16:35 | 38.83667 | 30.64361 | 39152 ft | 462 kts | 62° |
| 2026-05-07 16:35 | 38.86174 | 30.71955 | 39178 ft | 463 kts | 61° |
| 2026-05-07 16:36 | 38.88676 | 30.79494 | 39177 ft | 462 kts | 61° |
| 2026-05-07 16:36 | 38.91185 | 30.87074 | 39192 ft | 462 kts | 61° |
| 2026-05-07 16:37 | 38.93694 | 30.94671 | 39178 ft | 462 kts | 61° |
| 2026-05-07 16:37 | 38.96193 | 31.02259 | 39176 ft | 461 kts | 62° |
| 2026-05-07 16:38 | 38.98687 | 31.09852 | 39183 ft | 462 kts | 62° |
| 2026-05-07 16:38 | 39.01153 | 31.17379 | 39188 ft | 461 kts | 62° |
| 2026-05-07 16:39 | 39.03640 | 31.24992 | 39187 ft | 461 kts | 62° |
| 2026-05-07 16:39 | 39.06113 | 31.32582 | 39176 ft | 459 kts | 62° |
| 2026-05-07 16:40 | 39.08574 | 31.40153 | 39181 ft | 459 kts | 62° |
| 2026-05-07 16:40 | 39.11027 | 31.47724 | 39177 ft | 459 kts | 62° |
| 2026-05-07 16:41 | 39.13463 | 31.55259 | 39182 ft | 459 kts | 62° |
| 2026-05-07 16:41 | 39.15914 | 31.62863 | 39179 ft | 460 kts | 62° |
| 2026-05-07 16:42 | 39.18364 | 31.70483 | 39174 ft | 460 kts | 62° |
| 2026-05-07 16:42 | 39.20798 | 31.78068 | 39177 ft | 460 kts | 62° |
| 2026-05-07 16:43 | 39.23216 | 31.85648 | 39184 ft | 460 kts | 62° |
| 2026-05-07 16:43 | 39.25652 | 31.93295 | 38166 ft | 465 kts | 62° |
| 2026-05-07 16:43 | 39.26886 | 31.97181 | 37379 ft | 466 kts | 62° |
| 2026-05-07 16:44 | 39.28110 | 32.01038 | 36710 ft | 464 kts | 61° |
| 2026-05-07 16:44 | 39.29335 | 32.04902 | 35672 ft | 472 kts | 61° |
| 2026-05-07 16:44 | 39.30569 | 32.08804 | 35161 ft | 467 kts | 61° |
| 2026-05-07 16:44 | 39.31777 | 32.12627 | 34396 ft | 468 kts | 61° |
| 2026-05-07 16:45 | 39.33015 | 32.16551 | 33345 ft | 474 kts | 61° |
| 2026-05-07 16:45 | 39.34249 | 32.20469 | 32775 ft | 468 kts | 61° |
| 2026-05-07 16:45 | 39.35469 | 32.24347 | 32258 ft | 462 kts | 61° |
| 2026-05-07 16:45 | 39.36671 | 32.28174 | 31706 ft | 458 kts | 61° |
| 2026-05-07 16:46 | 39.37865 | 32.31978 | 31133 ft | 455 kts | 61° |
| 2026-05-07 16:46 | 39.39040 | 32.35748 | 30580 ft | 453 kts | 62° |
| 2026-05-07 16:46 | 39.40189 | 32.39528 | 29929 ft | 451 kts | 62° |
| 2026-05-07 16:46 | 39.41336 | 32.43296 | 29345 ft | 448 kts | 62° |
| 2026-05-07 16:47 | 39.42468 | 32.47013 | 28800 ft | 443 kts | 62° |
| 2026-05-07 16:47 | 39.43595 | 32.50645 | 28238 ft | 437 kts | 58° |
| 2026-05-07 16:47 | 39.44988 | 32.54101 | 27640 ft | 431 kts | 56° |
| 2026-05-07 16:47 | 39.46364 | 32.57526 | 27170 ft | 427 kts | 56° |
| 2026-05-07 16:48 | 39.47713 | 32.60934 | 26651 ft | 424 kts | 56° |
| 2026-05-07 16:48 | 39.49036 | 32.64311 | 26146 ft | 422 kts | 57° |
| 2026-05-07 16:48 | 39.50356 | 32.67696 | 25614 ft | 419 kts | 57° |
| 2026-05-07 16:48 | 39.51663 | 32.71053 | 25113 ft | 417 kts | 57° |
| 2026-05-07 16:49 | 39.52964 | 32.74403 | 24608 ft | 415 kts | 57° |
| 2026-05-07 16:49 | 39.54241 | 32.77693 | 24100 ft | 414 kts | 57° |
| 2026-05-07 16:49 | 39.55530 | 32.81017 | 23568 ft | 412 kts | 57° |
| 2026-05-07 16:49 | 39.56813 | 32.84334 | 22995 ft | 410 kts | 58° |
| 2026-05-07 16:50 | 39.58078 | 32.87603 | 22516 ft | 406 kts | 58° |
| 2026-05-07 16:50 | 39.59340 | 32.90870 | 22044 ft | 402 kts | 59° |
| 2026-05-07 16:50 | 39.60582 | 32.94086 | 21582 ft | 399 kts | 59° |
| 2026-05-07 16:50 | 39.62089 | 32.97022 | 21057 ft | 389 kts | 43° |
| 2026-05-07 16:51 | 39.64201 | 32.99140 | 20617 ft | 379 kts | 26° |
| 2026-05-07 16:51 | 39.66452 | 33.00782 | 20251 ft | 374 kts | 26° |
| 2026-05-07 16:51 | 39.68722 | 33.02400 | 19832 ft | 371 kts | 26° |
| 2026-05-07 16:51 | 39.70991 | 33.03989 | 19416 ft | 369 kts | 26° |
| 2026-05-07 16:52 | 39.73246 | 33.05551 | 19003 ft | 366 kts | 26° |
| 2026-05-07 16:52 | 39.75489 | 33.07095 | 18601 ft | 364 kts | 26° |
| 2026-05-07 16:52 | 39.77722 | 33.08629 | 18158 ft | 363 kts | 26° |
| 2026-05-07 16:52 | 39.79949 | 33.10157 | 17695 ft | 361 kts | 26° |
| 2026-05-07 16:53 | 39.82149 | 33.11667 | 17260 ft | 359 kts | 26° |
| 2026-05-07 16:53 | 39.84337 | 33.13171 | 16857 ft | 356 kts | 26° |
| 2026-05-07 16:53 | 39.86477 | 33.14641 | 16674 ft | 347 kts | 26° |
| 2026-05-07 16:53 | 39.88587 | 33.16094 | 16494 ft | 338 kts | 26° |
| 2026-05-07 16:54 | 39.90632 | 33.17501 | 16350 ft | 328 kts | 26° |
| 2026-05-07 16:54 | 39.92723 | 33.18538 | 16172 ft | 316 kts | 7° |
| 2026-05-07 16:54 | 39.94851 | 33.18472 | 16045 ft | 301 kts | 344° |
| 2026-05-07 16:54 | 39.96715 | 33.17418 | 15927 ft | 288 kts | 324° |
| 2026-05-07 16:55 | 39.98156 | 33.15680 | 15802 ft | 278 kts | 310° |
| 2026-05-07 16:55 | 39.99372 | 33.13809 | 15675 ft | 269 kts | 309° |
| 2026-05-07 16:55 | 40.00525 | 33.11937 | 15541 ft | 260 kts | 308° |
| 2026-05-07 16:55 | 40.01775 | 33.10261 | 15210 ft | 260 kts | 326° |
| 2026-05-07 16:56 | 40.03441 | 33.09403 | 14915 ft | 259 kts | 351° |
| 2026-05-07 16:56 | 40.05218 | 33.09506 | 14658 ft | 259 kts | 13° |
| 2026-05-07 16:56 | 40.08388 | 33.11789 | 14099 ft | 267 kts | 32° |
| 2026-05-07 16:57 | 40.09932 | 33.13181 | 13772 ft | 272 kts | 32° |
| 2026-05-07 16:57 | 40.11481 | 33.14615 | 13427 ft | 274 kts | 33° |
| 2026-05-07 16:57 | 40.13030 | 33.16068 | 13103 ft | 273 kts | 33° |
| 2026-05-07 16:57 | 40.14564 | 33.17517 | 12755 ft | 273 kts | 33° |
| 2026-05-07 16:58 | 40.16074 | 33.18955 | 12459 ft | 271 kts | 34° |
| 2026-05-07 16:58 | 40.17592 | 33.20405 | 12179 ft | 269 kts | 34° |
| 2026-05-07 16:58 | 40.19100 | 33.21849 | 11858 ft | 268 kts | 34° |
| 2026-05-07 16:58 | 40.20608 | 33.23294 | 11497 ft | 270 kts | 33° |
| 2026-05-07 16:59 | 40.22131 | 33.24755 | 11119 ft | 272 kts | 33° |
| 2026-05-07 16:59 | 40.23655 | 33.26218 | 10787 ft | 272 kts | 34° |
| 2026-05-07 16:59 | 40.25174 | 33.27678 | 10489 ft | 271 kts | 34° |
| 2026-05-07 16:59 | 40.26682 | 33.29128 | 10191 ft | 270 kts | 34° |
| 2026-05-07 17:00 | 40.28173 | 33.30561 | 9882 ft | 269 kts | 34° |
| 2026-05-07 17:00 | 40.29665 | 33.31979 | 9526 ft | 260 kts | 31° |
| 2026-05-07 17:00 | 40.31308 | 33.32773 | 9164 ft | 248 kts | 2° |
| 2026-05-07 17:00 | 40.32954 | 33.32444 | 8850 ft | 235 kts | 334° |
| 2026-05-07 17:01 | 40.34211 | 33.31200 | 8602 ft | 224 kts | 306° |
| 2026-05-07 17:01 | 40.34878 | 33.29344 | 8421 ft | 231 kts | 281° |
| 2026-05-07 17:01 | 40.34845 | 33.27235 | 8160 ft | 235 kts | 255° |
| 2026-05-07 17:01 | 40.34101 | 33.25356 | 7867 ft | 240 kts | 230° |
| 2026-05-07 17:02 | 40.32745 | 33.24089 | 7560 ft | 243 kts | 203° |
| 2026-05-07 17:02 | 40.31139 | 33.23388 | 7248 ft | 243 kts | 205° |
| 2026-05-07 17:02 | 40.29796 | 33.22127 | 6911 ft | 236 kts | 232° |
| 2026-05-07 17:02 | 40.28878 | 33.20421 | 6735 ft | 222 kts | 238° |
| 2026-05-07 17:03 | 40.28062 | 33.18783 | 6578 ft | 209 kts | 239° |
| 2026-05-07 17:03 | 40.27279 | 33.17151 | 6498 ft | 213 kts | 240° |
| 2026-05-07 17:03 | 40.26543 | 33.15587 | 6542 ft | 191 kts | 240° |
| 2026-05-07 17:03 | 40.25866 | 33.14133 | 6394 ft | 184 kts | 240° |
| 2026-05-07 17:04 | 40.25221 | 33.12735 | 6221 ft | 172 kts | 240° |
| 2026-05-07 17:04 | 40.24641 | 33.11473 | 5996 ft | 158 kts | 239° |
| 2026-05-07 17:04 | 40.23979 | 33.10406 | 5740 ft | 152 kts | 225° |
| 2026-05-07 17:04 | 40.23172 | 33.09545 | 5542 ft | 150 kts | 219° |
| 2026-05-07 17:05 | 40.22334 | 33.08746 | 5301 ft | 149 kts | 219° |
| 2026-05-07 17:05 | 40.21500 | 33.07950 | 5064 ft | 148 kts | 218° |
| 2026-05-07 17:05 | 40.20674 | 33.07161 | 4843 ft | 146 kts | 218° |
| 2026-05-07 17:05 | 40.19851 | 33.06374 | 4602 ft | 146 kts | 219° |
| 2026-05-07 17:06 | 40.19029 | 33.05588 | 4374 ft | 148 kts | 217° |
| 2026-05-07 17:06 | 40.18201 | 33.04801 | 4192 ft | 149 kts | 218° |
| 2026-05-07 17:06 | 40.17359 | 33.04013 | 3981 ft | 149 kts | 217° |
| 2026-05-07 17:06 | 40.16524 | 33.03207 | 3777 ft | 149 kts | 218° |
| 2026-05-07 17:07 | 40.15691 | 33.02402 | 3568 ft | 149 kts | 217° |
| 2026-05-07 17:07 | 40.14857 | 33.01611 | 3366 ft | 148 kts | 216° |
| 2026-05-07 17:07 | 40.14023 | 33.00822 | 3173 ft | 148 kts | 217° |
| 2026-05-07 17:07 | 40.13265 | 33.00092 | 3130 ft | 116 kts | 216° |
| 2026-05-07 17:08 | 40.12747 | 32.99596 | 3122 ft | 71 kts | 216° |
| 2026-05-07 17:08 | 40.12391 | 32.99257 | 3121 ft | 61 kts | 216° |
| 2026-05-07 17:08 | 40.12081 | 32.98960 | 3118 ft | 39 kts | 216° |
| 2026-05-07 17:08 | 40.11914 | 32.98872 | 3116 ft | 20 kts | 149° |
| 2026-05-07 17:09 | 40.11818 | 32.99015 | 3116 ft | 23 kts | 126° |
| 2026-05-07 17:09 | 40.11740 | 32.99117 | 3115 ft | 14 kts | 149° |
| 2026-05-07 17:09 | 40.11716 | 32.99202 | 3115 ft | 5 kts | 69° |
| 2026-05-07 17:09 | 40.11719 | 32.99253 | 3115 ft | 6 kts | 112° |
| 2026-05-07 17:10 | 40.11676 | 32.99287 | 3115 ft | 6 kts | 158° |
| 2026-05-07 17:10 | 40.11664 | 32.99293 | 3115 ft | 0 kts | 159° |